Time;durP1;ratioP1;P1;durP2;ratioP2;P2;SDS_P1;SDS_P2;PMS_P1;PMS_P2;Temp;Humidity;BMP_temperature;BMP_pressure;BME280_temperature;BME280_humidity;BME280_pressure;Samples;Min_cycle;Max_cycle;Signal;HPM_P1;HPM_P2
2022/07/07 00:02:07;;;;;;;;;1.67;1.67;;;;;22.46;48.01;102024.59;4998572;28;45263;-68
2022/07/07 00:04:32;;;;;;;;;3.00;2.00;;;;;22.23;47.91;101999.53;4984693;28;45700;-68
2022/07/07 00:07:04;;;;;;;;;2.00;2.00;;;;;22.39;48.26;102023.66;4978393;28;45285;-69
2022/07/07 00:09:30;;;;;;;;;2.00;2.00;;;;;22.31;48.31;102021.06;4978334;28;45423;-67
2022/07/07 00:11:56;;;;;;;;;3.00;3.00;;;;;22.38;48.66;102032.81;4978637;28;45313;-68
2022/07/07 00:14:25;;;;;;;;;2.00;1.00;;;;;22.31;48.49;102015.66;4976713;28;48486;-68
2022/07/07 00:16:50;;;;;;;;;2.67;2.67;;;;;22.39;48.50;102029.09;4977013;28;45302;-68
2022/07/07 00:19:16;;;;;;;;;1.00;1.00;;;;;22.39;48.30;102031.78;4976797;28;45191;-68
2022/07/07 00:21:42;;;;;;;;;6.00;4.67;;;;;22.40;48.70;102030.75;4978437;28;45334;-68
2022/07/07 00:24:07;;;;;;;;;2.00;2.00;;;;;22.36;48.43;102024.03;4978259;28;45309;-67
2022/07/07 00:26:33;;;;;;;;;8.33;8.33;;;;;22.37;48.55;102023.00;4978262;28;45319;-67
2022/07/07 00:28:58;;;;;;;;;10.67;6.33;;;;;22.38;48.52;102021.97;4978063;28;45340;-68
2022/07/07 00:31:24;;;;;;;;;9.67;8.33;;;;;22.31;48.45;102010.25;4976981;28;45373;-67
2022/07/07 00:33:50;;;;;;;;;9.33;9.00;;;;;22.34;48.47;102032.38;4985737;28;47549;-68
2022/07/07 00:36:15;;;;;;;;;9.33;9.33;;;;;22.33;48.62;102024.44;4997524;28;45496;-68
2022/07/07 00:38:41;;;;;;;;;7.00;5.00;;;;;22.18;48.29;102005.50;4997993;28;45324;-69
2022/07/07 00:41:07;;;;;;;;;2.00;2.00;;;;;22.28;48.57;102016.03;4998011;28;45538;-67
2022/07/07 00:43:37;;;;;;;;;3.00;3.00;;;;;22.24;48.63;102014.75;4996396;28;47048;-67
2022/07/07 00:46:07;;;;;;;;;3.67;3.33;;;;;22.10;48.69;101994.78;4998266;28;45470;-68
2022/07/07 00:48:37;;;;;;;;;9.00;8.00;;;;;22.05;48.50;101984.53;4996328;28;45237;-67
2022/07/07 00:51:08;;;;;;;;;4.33;4.33;;;;;22.17;48.88;102001.94;4997890;28;45434;-68
2022/07/07 00:53:34;;;;;;;;;11.00;11.00;;;;;22.03;49.48;101981.13;4997300;28;46745;-69
2022/07/07 00:56:00;;;;;;;;;2.00;2.00;;;;;22.01;49.23;101980.44;4997420;28;45319;-68
2022/07/07 00:58:27;;;;;;;;;2.00;2.00;;;;;22.11;49.04;101993.75;4997238;28;45189;-67
2022/07/07 01:00:53;;;;;;;;;3.67;2.00;;;;;21.77;49.14;101938.28;4996512;28;45423;-67
2022/07/07 01:03:19;;;;;;;;;7.67;7.67;;;;;21.80;49.32;101943.31;4994107;28;45418;-68
2022/07/07 01:05:46;;;;;;;;;2.67;2.67;;;;;22.03;49.35;101973.00;4979852;28;45400;-68
2022/07/07 01:08:15;;;;;;;;;11.67;10.67;;;;;21.52;49.25;101880.94;4978419;28;45416;-66
2022/07/07 01:10:41;;;;;;;;;4.00;2.67;;;;;21.56;49.19;101893.06;4978058;28;45275;-68
2022/07/07 01:13:06;;;;;;;;;4.00;4.00;;;;;22.10;49.13;101982.06;4977475;28;45794;-68
2022/07/07 01:15:31;;;;;;;;;4.00;4.00;;;;;;;;4977517;28;45214;-66
2022/07/07 01:17:57;;;;;;;;;4.67;4.67;;;;;21.96;49.04;101952.28;4976488;28;45295;-68
2022/07/07 01:20:22;;;;;;;;;3.00;3.00;;;;;22.05;49.27;101968.28;4976532;28;45546;-67
2022/07/07 01:22:51;;;;;;;;;3.00;2.33;;;;;22.07;49.04;101985.16;4976523;28;46675;-67
2022/07/07 01:25:16;;;;;;;;;15.00;13.00;;;;;21.68;49.12;101908.81;4977432;28;45584;-69
2022/07/07 01:27:44;;;;;;;;;9.00;5.67;;;;;21.23;49.47;101843.06;4977684;28;45550;-68
2022/07/07 01:30:11;;;;;;;;;5.67;5.67;;;;;21.91;49.55;101955.56;4977492;28;45272;-67
2022/07/07 01:32:36;;;;;;;;;4.00;4.00;;;;;22.03;49.64;101978.44;4975952;28;45620;-68
2022/07/07 01:35:02;;;;;;;;;5.67;5.67;;;;;21.86;49.37;101953.41;4996616;28;45425;-66
2022/07/07 01:37:28;;;;;;;;;4.00;4.00;;;;;21.91;49.44;101954.72;4995800;28;45440;-70
2022/07/07 01:39:54;;;;;;;;;4.00;4.00;;;;;21.96;49.46;101976.63;4997216;28;45401;-68
2022/07/07 01:42:20;;;;;;;;;3.00;2.00;;;;;21.89;49.96;101965.75;4996587;28;45439;-68
2022/07/07 01:44:48;;;;;;;;;4.00;3.00;;;;;21.90;49.74;101967.41;4996670;28;45307;-68
2022/07/07 01:47:13;;;;;;;;;3.33;2.33;;;;;21.77;49.79;101948.28;4996875;28;45258;-69
2022/07/07 01:49:38;;;;;;;;;7.67;7.67;;;;;21.90;49.67;101975.53;4995537;28;45602;-67
2022/07/07 01:52:05;;;;;;;;;38.00;33.33;;;;;21.83;49.67;101953.81;4995453;28;48464;-68
2022/07/07 01:54:33;;;;;;;;;2.33;2.33;;;;;21.87;49.65;101962.38;4995414;28;45856;-67
2022/07/07 01:56:59;;;;;;;;;7.00;5.00;;;;;21.85;50.08;101965.28;4996880;28;45588;-69
2022/07/07 01:59:25;;;;;;;;;4.67;3.00;;;;;21.72;49.92;101956.13;4997009;28;45400;-68
2022/07/07 02:01:50;;;;;;;;;3.00;2.00;;;;;21.62;50.03;101942.03;4994720;28;45934;-68
2022/07/07 02:04:16;;;;;;;;;4.00;4.00;;;;;21.38;50.18;101905.28;4996446;28;45925;-68
2022/07/07 02:06:42;;;;;;;;;2.33;2.33;;;;;21.60;50.45;101941.38;4996913;28;45482;-67
2022/07/07 02:09:08;;;;;;;;;1.33;1.33;;;;;21.43;50.53;101908.28;4996429;28;45570;-67
2022/07/07 02:11:34;;;;;;;;;1.67;1.67;;;;;21.70;50.43;101952.78;4996468;28;45365;-69
2022/07/07 02:14:00;;;;;;;;;2.00;2.00;;;;;21.62;50.44;101942.03;4994814;28;45361;-68
2022/07/07 02:16:27;;;;;;;;;3.33;2.00;;;;;21.53;50.67;101936.72;4996329;28;45474;-68
2022/07/07 02:18:56;;;;;;;;;2.00;2.00;;;;;21.54;50.59;101933.00;4996492;28;45477;-67
2022/07/07 02:21:22;;;;;;;;;2.33;2.33;;;;;21.64;50.40;101932.72;4996087;28;45952;-69
2022/07/07 02:23:49;;;;;;;;;3.00;3.00;;;;;21.68;50.34;101938.59;4996281;28;45485;-68
2022/07/07 02:26:15;;;;;;;;;3.33;3.33;;;;;21.51;50.13;101919.84;4996442;28;45261;-68
2022/07/07 02:28:41;;;;;;;;;1.00;1.00;;;;;21.65;50.39;101947.09;4996538;28;45346;-66
2022/07/07 02:31:08;;;;;;;;;1.33;1.33;;;;;21.58;50.58;101929.91;4983223;28;46694;-68
2022/07/07 02:33:33;;;;;;;;;2.00;2.00;;;;;21.60;50.31;101939.50;4978426;28;45491;-68
2022/07/07 02:35:59;;;;;;;;;2.00;1.00;;;;;21.47;50.44;101923.97;4980062;28;45371;-68
2022/07/07 02:38:25;;;;;;;;;3.00;3.00;;;;;21.24;50.60;101894.28;4980129;28;45531;-68
2022/07/07 02:40:51;;;;;;;;;3.33;2.33;;;;;21.44;50.76;101931.63;4979397;28;45427;-68
2022/07/07 02:43:17;;;;;;;;;3.00;3.00;;;;;21.30;50.89;101908.94;4978396;28;45321;-69
2022/07/07 02:45:44;;;;;;;;;1.33;1.33;;;;;21.05;50.65;101867.78;4978330;28;45305;-68
2022/07/07 02:48:11;;;;;;;;;2.00;2.00;;;;;21.49;50.67;101940.84;4980155;28;45230;-68
2022/07/07 02:50:37;;;;;;;;;3.00;2.00;;;;;21.28;50.79;101902.88;4979784;28;46210;-67
2022/07/07 02:53:04;;;;;;;;;3.33;2.00;;;;;21.20;51.08;101886.69;4979912;28;45451;-68
2022/07/07 02:55:30;;;;;;;;;1.67;1.67;;;;;20.88;51.08;101850.88;4978520;28;45258;-68
2022/07/07 02:57:56;;;;;;;;;3.00;3.00;;;;;21.21;51.09;101916.25;4979830;28;45456;-70
2022/07/07 03:00:25;;;;;;;;;0.33;0.33;;;;;21.21;51.15;101915.41;4987655;28;46229;-68
2022/07/07 03:02:50;;;;;;;;;3.00;3.00;;;;;21.35;51.58;101933.56;4998430;28;45473;-68
2022/07/07 03:05:16;;;;;;;;;3.33;3.33;;;;;21.19;51.51;101909.34;5000285;28;45254;-68
2022/07/07 03:07:41;;;;;;;;;1.67;1.67;;;;;21.22;51.58;101922.50;5000131;28;45269;-68
2022/07/07 03:10:07;;;;;;;;;3.33;3.33;;;;;21.24;51.28;101923.22;4999025;28;53908;-69
2022/07/07 03:12:33;;;;;;;;;3.67;3.00;;;;;21.28;51.83;101938.03;4999472;28;45214;-67
2022/07/07 03:14:59;;;;;;;;;3.00;3.00;;;;;21.16;51.70;101920.53;4999040;28;45624;-66
2022/07/07 03:17:24;;;;;;;;;2.00;2.00;;;;;21.15;51.68;101921.56;4999383;28;45439;-67
2022/07/07 03:19:49;;;;;;;;;1.00;1.00;;;;;21.20;51.87;101924.53;4998752;28;45490;-67
2022/07/07 03:22:15;;;;;;;;;3.00;3.00;;;;;21.02;51.83;101899.72;4998954;28;45518;-67
2022/07/07 03:24:40;;;;;;;;;4.00;4.00;;;;;21.22;51.78;101938.72;4999060;28;45534;-67
2022/07/07 03:27:06;;;;;;;;;1.00;1.00;;;;;21.18;52.06;101942.81;4999302;28;45497;-68
2022/07/07 03:29:31;;;;;;;;;3.00;2.00;;;;;21.06;52.17;101914.56;4996835;28;45469;-67
2022/07/07 03:31:57;;;;;;;;;2.67;2.00;;;;;20.60;51.97;101837.13;4978936;28;45443;-67
2022/07/07 03:34:22;;;;;;;;;3.33;2.33;;;;;21.12;52.12;101917.38;4979157;28;45739;-67
2022/07/07 03:36:47;;;;;;;;;3.33;2.67;;;;;21.01;52.12;101903.44;4977935;28;45400;-68
2022/07/07 03:39:15;;;;;;;;;1.33;1.33;;;;;20.71;52.33;101859.31;4977498;28;46754;-67
2022/07/07 03:41:40;;;;;;;;;2.00;2.00;;;;;21.05;52.58;101932.66;4978735;28;45499;-68
2022/07/07 03:44:06;;;;;;;;;2.00;2.00;;;;;20.88;52.54;101894.13;4978360;28;45475;-68
2022/07/07 03:46:31;;;;;;;;;4.00;4.00;;;;;21.09;52.58;101925.03;4977929;28;45279;-68
2022/07/07 03:48:56;;;;;;;;;2.00;2.00;;;;;21.01;52.53;101919.66;4978718;28;45855;-67
2022/07/07 03:51:22;;;;;;;;;3.00;3.00;;;;;21.08;52.58;101936.84;4978931;28;45253;-67
2022/07/07 03:53:48;;;;;;;;;3.00;3.00;;;;;20.75;52.88;101864.16;4978922;28;45518;-67
2022/07/07 03:56:14;;;;;;;;;2.50;2.50;;;;;21.00;52.61;101918.84;4978842;28;45450;-66
2022/07/07 03:58:40;;;;;;;;;3.00;3.00;;;;;20.96;52.97;101907.56;4977090;28;48346;-67
2022/07/07 04:01:05;;;;;;;;;3.33;3.33;;;;;20.68;52.90;101860.53;4974434;28;45475;-68
2022/07/07 04:03:31;;;;;;;;;3.00;1.67;;;;;21.03;53.11;101926.59;4960032;28;45301;-70
2022/07/07 04:05:56;;;;;;;;;3.67;3.67;;;;;20.84;53.28;101892.81;4959596;28;45668;-68
2022/07/07 04:08:22;;;;;;;;;3.00;2.33;;;;;20.82;53.47;101883.19;4991833;28;45985;-67
2022/07/07 04:10:47;;;;;;;;;4.67;3.00;;;;;21.01;53.36;101915.09;4998327;28;45440;-68
2022/07/07 04:13:12;;;;;;;;;2.00;2.00;;;;;20.94;53.50;101904.19;4998233;28;45517;-68
2022/07/07 04:15:38;;;;;;;;;4.67;3.67;;;;;20.92;53.45;101906.25;4998540;28;45355;-67
2022/07/07 04:18:03;;;;;;;;;4.33;3.00;;;;;20.88;53.45;101890.59;4997674;28;46687;-68
2022/07/07 04:20:30;;;;;;;;;2.67;2.67;;;;;21.01;53.61;101915.09;4998087;28;45369;-68
2022/07/07 04:22:56;;;;;;;;;4.00;4.00;;;;;20.99;53.81;101925.25;4998099;28;45284;-67
2022/07/07 04:25:22;;;;;;;;;5.00;4.00;;;;;20.90;54.02;101907.47;4998357;28;45311;-69
2022/07/07 04:27:47;;;;;;;;;4.00;2.67;;;;;20.96;53.98;101923.78;4997891;28;46168;-67
2022/07/07 04:30:13;;;;;;;;;5.00;4.00;;;;;20.91;54.20;101912.69;4997516;28;45219;-68
2022/07/07 04:32:38;;;;;;;;;4.00;3.00;;;;;20.91;54.34;101909.97;4998050;28;45346;-67
2022/07/07 04:35:07;;;;;;;;;3.00;2.33;;;;;20.90;54.16;101908.28;4998114;28;45502;-68
2022/07/07 04:37:32;;;;;;;;;6.67;3.67;;;;;20.98;54.15;101920.03;4998014;28;45849;-69
2022/07/07 04:39:58;;;;;;;;;5.00;4.00;;;;;20.98;54.27;101928.16;4995483;28;45498;-67
2022/07/07 04:42:26;;;;;;;;;2.00;2.00;;;;;20.93;54.13;101923.31;4997745;28;45370;-68
2022/07/07 04:44:54;;;;;;;;;5.00;4.00;;;;;20.91;54.54;101909.97;4997698;28;45444;-68
2022/07/07 04:47:19;;;;;;;;;4.00;4.00;;;;;20.82;54.31;101900.28;4995609;28;47598;-69
2022/07/07 04:49:50;;;;;;;;;4.33;4.00;;;;;20.90;54.57;101916.41;4996824;28;45482;-68
2022/07/07 04:52:15;;;;;;;;;3.00;3.00;;;;;20.86;54.52;101914.25;4996256;28;45320;-67
2022/07/07 04:54:43;;;;;;;;;2.67;2.67;;;;;20.78;54.63;101908.91;4997582;28;45554;-67
2022/07/07 04:57:11;;;;;;;;;2.67;2.67;;;;;20.83;54.85;101920.88;4986063;28;46238;-67
2022/07/07 04:59:43;;;;;;;;;4.00;4.00;;;;;20.92;54.92;101946.78;4977665;28;45407;-67
2022/07/07 05:02:08;;;;;;;;;3.00;3.00;;;;;20.92;54.98;101960.31;4977519;28;45596;-68
2022/07/07 05:04:33;;;;;;;;;2.33;2.33;;;;;20.77;55.25;101934.25;4977949;28;45579;-68
2022/07/07 05:06:59;;;;;;;;;5.67;5.00;;;;;20.93;55.17;101951.19;4976114;28;48520;-68
2022/07/07 05:09:24;;;;;;;;;5.33;5.00;;;;;20.93;55.46;101948.47;4977388;28;45413;-67
2022/07/07 05:11:50;;;;;;;;;5.33;4.00;;;;;20.91;55.42;101949.69;4977717;28;45424;-68
2022/07/07 05:14:15;;;;;;;;;5.00;5.00;;;;;20.68;55.17;101913.75;4977434;28;45456;-68
2022/07/07 05:16:40;;;;;;;;;7.33;5.33;;;;;20.78;55.56;101923.25;4993349;28;46258;-68
2022/07/07 05:19:09;;;;;;;;;10.67;7.00;;;;;20.78;55.46;101934.06;4997234;28;45387;-68
2022/07/07 05:21:34;;;;;;;;;4.00;4.00;;;;;20.54;55.51;101896.44;4984084;28;45314;-70
2022/07/07 05:24:00;;;;;;;;;3.00;3.00;;;;;21.03;55.51;101969.03;4993826;28;45228;-69
2022/07/07 05:26:25;;;;;;;;;4.00;3.00;;;;;21.00;55.57;101961.25;4996851;28;46728;-69
2022/07/07 05:28:50;;;;;;;;;5.33;5.33;;;;;20.89;55.67;101941.75;4996749;28;45285;-66
2022/07/07 05:31:16;;;;;;;;;9.00;5.00;;;;;21.01;55.77;101957.53;4980309;28;45460;-67
2022/07/07 05:33:42;;;;;;;;;4.00;4.00;;;;;21.01;55.44;101962.94;4977451;28;46247;-68
2022/07/07 05:36:08;;;;;;;;;4.33;4.33;;;;;21.04;55.55;101959.88;4977363;28;46001;-68
2022/07/07 05:38:34;;;;;;;;;6.00;4.00;;;;;21.09;55.54;101970.97;4980553;28;45624;-68
2022/07/07 05:41:00;;;;;;;;;5.00;4.00;;;;;21.13;55.55;101964.19;4979968;28;45538;-71
2022/07/07 05:43:25;;;;;;;;;6.00;4.00;;;;;21.12;55.47;101959.81;4977417;28;45473;-70
2022/07/07 05:45:51;;;;;;;;;4.00;4.00;;;;;21.04;55.24;101951.78;4976983;28;46311;-69
2022/07/07 05:48:16;;;;;;;;;4.00;4.00;;;;;21.19;55.19;101956.16;4985861;28;45392;-69
2022/07/07 05:50:42;;;;;;;;;3.67;2.67;;;;;21.21;55.20;101964.94;4996076;28;45556;-70
2022/07/07 05:53:08;;;;;;;;;4.67;4.67;;;;;21.05;55.47;101942.63;4995280;28;45606;-69
2022/07/07 05:55:33;;;;;;;;;4.00;4.00;;;;;21.27;55.36;101968.81;4996196;28;45644;-67
2022/07/07 05:57:59;;;;;;;;;3.00;2.00;;;;;21.32;55.51;101966.38;4996113;28;45357;-68
2022/07/07 06:00:25;;;;;;;;;3.00;3.00;;;;;21.23;55.25;101962.91;4995922;28;45654;-70
2022/07/07 06:02:51;;;;;;;;;5.00;5.00;;;;;21.36;55.17;101975.81;4988858;28;45542;-68
2022/07/07 06:05:16;;;;;;;;;3.00;3.00;;;;;21.36;55.28;101978.50;4976349;28;45955;-68
2022/07/07 06:07:42;;;;;;;;;5.00;5.00;;;;;21.35;55.37;101971.44;5003103;28;45997;-69
2022/07/07 06:10:10;;;;;;;;;3.33;3.00;;;;;21.40;55.08;101977.13;4995818;28;45245;-69
2022/07/07 06:12:36;;;;;;;;;3.67;3.67;;;;;21.39;54.94;101978.13;5004171;28;45463;-74
2022/07/07 06:15:05;;;;;;;;;5.67;4.33;;;;;21.39;54.98;101970.03;4996884;28;46434;-71
2022/07/07 06:17:30;;;;;;;;;4.67;4.67;;;;;21.34;54.92;101961.63;4987283;28;45286;-70
2022/07/07 06:19:57;;;;;;;;;4.00;4.00;;;;;21.54;54.75;102008.75;4987250;28;45567;-70
2022/07/07 06:22:22;;;;;;;;;3.67;3.33;;;;;21.33;55.01;101973.47;4960863;28;45440;-68
2022/07/07 06:24:48;;;;;;;;;6.00;6.00;;;;;20.88;54.76;101904.94;4972779;28;47487;-69
2022/07/07 06:27:13;;;;;;;;;3.67;3.67;;;;;21.46;55.10;101987.22;4979702;28;45329;-69
2022/07/07 06:29:38;;;;;;;;;4.33;4.00;;;;;21.59;54.72;102010.06;4978155;28;45578;-69
2022/07/07 06:32:04;;;;;;;;;3.33;3.33;;;;;21.61;54.92;102014.25;4979496;28;45297;-68
2022/07/07 06:34:30;;;;;;;;;5.00;3.67;;;;;21.69;55.03;102021.47;4977897;28;46816;-69
2022/07/07 06:36:56;;;;;;;;;5.33;4.00;;;;;21.51;54.63;101998.31;4979568;28;45486;-69
2022/07/07 06:39:21;;;;;;;;;4.33;4.33;;;;;21.56;54.68;102006.72;4979713;28;45329;-70
2022/07/07 06:41:47;;;;;;;;;5.67;3.67;;;;;21.65;54.69;102025.59;4978628;28;45576;-69
2022/07/07 06:44:12;;;;;;;;;7.67;5.33;;;;;21.73;54.74;102033.59;4979211;28;45488;-69
2022/07/07 06:46:39;;;;;;;;;3.00;3.00;;;;;21.53;54.65;102007.09;4979382;28;45385;-68
2022/07/07 06:49:05;;;;;;;;;3.33;3.33;;;;;21.72;54.94;102034.63;4979066;28;45517;-70
2022/07/07 06:51:30;;;;;;;;;5.00;5.00;;;;;21.74;54.67;102032.56;4978134;28;45497;-69
2022/07/07 06:53:56;;;;;;;;;5.00;3.67;;;;;21.67;54.73;102018.13;4979075;28;46216;-68
2022/07/07 06:56:21;;;;;;;;;7.67;7.00;;;;;21.61;54.77;102000.72;4978971;28;45312;-70
2022/07/07 06:58:46;;;;;;;;;5.00;4.00;;;;;21.79;54.49;102035.56;4979219;28;45432;-70
2022/07/07 07:01:12;;;;;;;;;5.00;3.67;;;;;21.56;54.65;101995.88;4979288;28;45515;-69
2022/07/07 07:03:37;;;;;;;;;4.33;4.33;;;;;21.87;54.52;102043.59;4982376;28;46562;-69
2022/07/07 07:06:02;;;;;;;;;5.00;3.67;;;;;21.81;54.49;102001.00;4995149;28;46397;-69
2022/07/07 07:08:28;;;;;;;;;3.67;3.67;;;;;22.03;54.17;102029.03;4977915;28;45535;-68
2022/07/07 07:10:53;;;;;;;;;5.67;5.67;;;;;21.34;54.05;101902.13;4979068;28;45443;-67
2022/07/07 07:13:19;;;;;;;;;5.00;3.33;;;;;21.96;53.44;102004.56;4978943;28;46438;-69
2022/07/07 07:15:45;;;;;;;;;3.33;3.33;;;;;22.03;53.52;102004.66;4977357;28;45403;-69
2022/07/07 07:18:11;;;;;;;;;4.67;4.33;;;;;22.25;53.68;102038.09;4979021;28;45409;-69
2022/07/07 07:20:36;;;;;;;;;4.00;4.00;;;;;22.11;53.24;102027.09;4990164;28;45321;-69
2022/07/07 07:23:02;;;;;;;;;4.00;4.00;;;;;22.13;53.33;102030.44;4997475;28;46610;-70
2022/07/07 07:25:27;;;;;;;;;7.00;7.00;;;;;22.35;53.48;102038.63;4998791;28;45360;-69
2022/07/07 07:27:53;;;;;;;;;4.67;3.00;;;;;22.34;53.13;102034.25;4987596;28;45425;-68
2022/07/07 07:30:18;;;;;;;;;5.33;4.33;;;;;22.48;52.96;102049.63;4976005;28;45354;-67
2022/07/07 07:32:44;;;;;;;;;3.67;3.00;;;;;22.64;52.58;102064.84;4975224;28;48430;-67
2022/07/07 07:35:10;;;;;;;;;4.00;4.00;;;;;22.53;52.04;102025.50;4974953;28;46046;-67
2022/07/07 07:37:38;;;;;;;;;3.00;3.00;;;;;22.73;52.16;102056.38;4975080;28;45534;-67
2022/07/07 07:40:05;;;;;;;;;6.33;4.67;;;;;22.55;51.87;102026.16;4975129;28;45574;-67
2022/07/07 07:42:31;;;;;;;;;2.67;2.67;;;;;22.88;52.24;102082.63;4975628;28;45948;-69
2022/07/07 07:45:12;;;;;;;;;4.33;4.00;;;;;22.90;51.92;102075.16;4975577;28;45479;-68
2022/07/07 07:47:45;;;;;;;;;3.00;3.00;;;;;23.00;51.65;102081.06;4975741;28;45550;-67
2022/07/07 07:50:13;;;;;;;;;3.67;3.67;;;;;23.07;51.18;102087.44;4998015;28;45214;-68
2022/07/07 07:52:40;;;;;;;;;5.00;3.67;;;;;23.09;50.91;102068.25;4990048;28;46711;-68
2022/07/07 07:55:07;;;;;;;;;4.33;4.33;;;;;23.25;51.18;102084.25;4987822;28;45570;-68
2022/07/07 07:57:33;;;;;;;;;5.67;4.33;;;;;23.33;51.07;102076.81;4994304;28;45487;-67
2022/07/07 07:59:59;;;;;;;;;3.00;3.00;;;;;23.47;50.49;102099.47;4987871;28;45768;-66
2022/07/07 08:02:24;;;;;;;;;3.67;1.00;;;;;23.56;50.02;102076.59;4977544;28;45562;-69
2022/07/07 08:04:50;;;;;;;;;4.00;4.00;;;;;23.79;49.52;102073.63;4980901;28;45421;-68
2022/07/07 08:07:16;;;;;;;;;5.33;4.00;;;;;24.15;49.88;102065.28;4993159;28;45446;-67
2022/07/07 08:09:41;;;;;;;;;4.67;4.67;;;;;24.55;48.81;102079.91;4978152;28;45444;-70
2022/07/07 08:12:07;;;;;;;;;8.33;7.33;;;;;24.75;47.79;102049.22;4992898;28;46422;-68
2022/07/07 08:14:32;;;;;;;;;6.33;5.33;;;;;25.20;46.95;102063.94;4997899;28;45201;-67
2022/07/07 08:16:58;;;;;;;;;6.00;4.00;;;;;25.57;45.92;102075.25;4997846;28;45393;-68
2022/07/07 08:19:23;;;;;;;;;2.67;2.67;;;;;25.89;44.94;102079.00;4996184;28;45561;-68
2022/07/07 08:21:48;;;;;;;;;5.00;4.00;;;;;26.07;43.62;102065.53;4996955;28;46116;-67
2022/07/07 08:24:14;;;;;;;;;2.33;2.00;;;;;26.10;43.15;102070.56;4984042;28;45395;-67
2022/07/07 08:26:40;;;;;;;;;7.33;6.00;;;;;26.03;43.71;102050.69;4977631;28;45399;-67
2022/07/07 08:29:06;;;;;;;;;4.00;4.00;;;;;26.06;43.54;102055.69;4993996;28;45552;-68
2022/07/07 08:31:31;;;;;;;;;6.67;5.67;;;;;26.04;44.01;102046.91;4995044;28;45783;-68
2022/07/07 08:33:57;;;;;;;;;3.67;3.67;;;;;25.85;43.47;102028.72;4979169;28;45309;-68
2022/07/07 08:36:22;;;;;;;;;1.00;1.00;;;;;25.98;43.74;102048.56;4977230;28;45337;-67
2022/07/07 08:38:47;;;;;;;;;3.00;3.00;;;;;26.02;42.92;102059.88;4977147;28;45266;-68
2022/07/07 08:41:15;;;;;;;;;3.00;3.00;;;;;25.84;43.86;102051.56;4977092;28;45642;-68
2022/07/07 08:43:41;;;;;;;;;1.33;1.33;;;;;25.84;43.75;102055.13;4977025;28;45723;-65
2022/07/07 08:46:08;;;;;;;;;2.67;2.67;;;;;25.82;44.37;102053.66;5008507;28;45363;-68
2022/07/07 08:48:34;;;;;;;;;3.00;3.00;;;;;26.02;44.61;102057.16;4977082;28;45336;-69
2022/07/07 08:51:01;;;;;;;;;3.00;3.00;;;;;26.38;43.49;102041.09;4977085;28;46664;-67
2022/07/07 08:53:30;;;;;;;;;5.67;5.67;;;;;27.08;42.87;102056.69;4976826;28;45467;-67
2022/07/07 08:55:57;;;;;;;;;4.00;3.67;;;;;27.25;40.76;102055.06;5008410;28;45523;-68
2022/07/07 08:58:23;;;;;;;;;2.00;2.00;;;;;27.45;39.28;102057.63;4988870;28;45482;-69
2022/07/07 09:00:48;;;;;;;;;4.00;2.00;;;;;27.00;39.30;101988.69;4988028;28;45533;-68
2022/07/07 09:03:14;;;;;;;;;2.00;2.00;;;;;27.12;39.48;102056.00;4976575;28;45449;-68
2022/07/07 09:05:39;;;;;;;;;2.00;2.00;;;;;26.79;39.80;102058.94;4975781;28;45514;-68
2022/07/07 09:08:19;;;;;;;;;4.00;3.00;;;;;26.59;41.23;102060.94;4980405;28;45424;-67
2022/07/07 09:10:44;;;;;;;;;1.00;1.00;;;;;26.38;40.30;102046.56;4974227;28;45946;-67
2022/07/07 09:13:31;;;;;;;;;2.67;2.67;;;;;26.47;41.09;102022.63;4974715;28;45356;-68
2022/07/07 09:15:58;;;;;;;;;1.00;1.00;;;;;27.10;39.91;102055.41;4992105;28;45328;-68
2022/07/07 09:18:36;;;;;;;;;0.00;0.00;;;;;27.27;39.62;102064.72;4975848;28;45576;-68
2022/07/07 09:21:03;;;;;;;;;2.00;1.00;;;;;26.79;39.26;101971.59;4975266;28;47397;-68
2022/07/07 09:23:29;;;;;;;;;3.33;3.00;;;;;26.28;39.80;101909.03;4992255;28;46885;-68
2022/07/07 09:25:55;;;;;;;;;1.00;1.00;;;;;27.17;39.89;102069.81;4976552;28;45483;-67
2022/07/07 09:28:21;;;;;;;;;7.33;5.67;;;;;27.05;40.55;102065.31;4988935;28;45635;-69
2022/07/07 09:30:48;;;;;;;;;1.00;0.00;;;;;26.79;40.05;102071.72;4976625;28;46303;-69
2022/07/07 09:33:17;;;;;;;;;3.00;1.00;;;;;26.58;40.79;102072.91;5006965;28;45423;-69
2022/07/07 09:38:30;;;;;;;;;3.33;3.00;;;;;26.18;41.31;102080.38;4996529;28;45596;-67
2022/07/07 09:41:08;;;;;;;;;2.00;2.00;;;;;26.08;41.61;102083.56;4995990;28;45574;-69
2022/07/07 09:43:53;;;;;;;;;2.00;1.33;;;;;25.79;41.77;102057.63;4998458;28;45331;-68
2022/07/07 09:46:23;;;;;;;;;2.00;2.00;;;;;25.91;42.10;102071.47;4999682;28;45498;-68
2022/07/07 09:48:54;;;;;;;;;4.33;2.67;;;;;25.50;42.43;102011.78;4998362;28;45606;-69
2022/07/07 09:51:32;;;;;;;;;1.00;1.00;;;;;25.89;42.32;102088.03;4984175;28;47429;-71
2022/07/07 09:54:00;;;;;;;;;4.00;3.00;;;;;25.89;42.81;102098.09;4980026;28;45441;-68
2022/07/07 09:56:45;;;;;;;;;4.33;4.33;;;;;25.82;42.96;102111.69;4982695;28;45460;-69
2022/07/07 09:59:16;;;;;;;;;3.67;3.67;;;;;25.60;43.23;102092.00;4999982;28;45504;-68
2022/07/07 10:01:44;;;;;;;;;4.00;4.00;;;;;25.61;43.38;102114.63;4998114;28;47718;-68
2022/07/07 10:04:11;;;;;;;;;1.33;1.33;;;;;25.46;43.49;102123.03;4999790;28;45470;-68
2022/07/07 10:06:39;;;;;;;;;5.00;3.33;;;;;25.41;43.58;102130.97;4998526;28;45442;-68
2022/07/07 10:09:07;;;;;;;;;3.00;2.00;;;;;25.31;44.13;102136.81;5000121;28;45462;-67
2022/07/07 10:11:36;;;;;;;;;3.67;3.00;;;;;25.13;44.51;102139.31;4999747;28;46624;-66
2022/07/07 10:14:09;;;;;;;;;6.33;3.00;;;;;24.99;44.80;102141.16;4999598;28;45471;-69
2022/07/07 10:16:36;;;;;;;;;1.33;1.33;;;;;24.53;44.98;102090.16;4999462;28;45500;-67
2022/07/07 10:19:02;;;;;;;;;3.00;3.00;;;;;24.67;45.27;102125.56;4997712;28;45350;-68
2022/07/07 10:21:28;;;;;;;;;3.00;3.00;;;;;24.72;45.72;102155.69;4999468;28;45407;-69
2022/07/07 10:23:54;;;;;;;;;2.00;2.00;;;;;24.52;45.48;102144.72;4998961;28;45332;-68
2022/07/07 10:26:37;;;;;;;;;2.00;2.00;;;;;24.47;45.46;102161.66;4999689;28;45357;-69
2022/07/07 10:29:04;;;;;;;;;2.00;2.00;;;;;24.39;46.39;102172.69;4999459;28;45222;-70
2022/07/07 10:31:30;;;;;;;;;3.00;3.00;;;;;24.34;46.00;102168.88;4999094;28;47004;-69
2022/07/07 10:34:03;;;;;;;;;2.00;2.00;;;;;24.20;45.51;102160.63;4997488;28;45379;-67
2022/07/07 10:37:05;;;;;;;;;3.00;3.00;;;;;24.30;45.37;102176.59;4999382;28;45503;-68
2022/07/07 10:39:34;;;;;;;;;2.67;2.67;;;;;24.16;45.77;102163.94;4996644;28;45441;-70
2022/07/07 10:42:05;;;;;;;;;2.00;2.00;;;;;24.22;45.52;102180.28;4997748;28;45764;-68
2022/07/07 10:44:32;;;;;;;;;1.33;1.33;;;;;24.08;45.97;102164.94;4998568;28;45486;-70
2022/07/07 10:46:58;;;;;;;;;3.33;3.33;;;;;24.08;46.20;102172.25;4999218;28;45289;-68
2022/07/07 10:49:43;;;;;;;;;2.67;1.67;;;;;24.20;46.14;102181.50;4999586;28;45530;-68
2022/07/07 10:52:16;;;;;;;;;5.00;5.00;;;;;24.32;46.32;102190.84;4999045;28;45670;-68
2022/07/07 10:55:03;;;;;;;;;3.33;2.33;;;;;24.31;45.84;102182.88;4997194;28;45211;-68
2022/07/07 10:57:40;;;;;;;;;3.67;3.67;;;;;24.43;45.03;102186.72;4998396;28;45479;-66
2022/07/07 11:00:26;;;;;;;;;2.00;2.00;;;;;24.50;44.97;102179.44;5008922;28;45383;-69
2022/07/07 11:03:09;;;;;;;;;3.67;3.67;;;;;24.58;45.08;102188.25;4977079;28;48782;-68
2022/07/07 11:05:35;;;;;;;;;6.00;6.00;;;;;24.61;45.34;102199.78;4979053;28;45518;-66
2022/07/07 11:08:03;;;;;;;;;6.00;6.00;;;;;24.62;44.90;102196.00;4977595;28;45370;-67
2022/07/07 11:10:37;;;;;;;;;4.33;4.33;;;;;24.55;45.10;102201.41;4979147;28;45479;-69
2022/07/07 11:13:29;;;;;;;;;3.00;3.00;;;;;24.46;45.62;102203.47;4988642;28;45648;-68
2022/07/07 11:16:23;;;;;;;;;8.00;8.00;;;;;24.41;45.32;102202.38;4998426;28;45416;-68
2022/07/07 11:18:57;;;;;;;;;4.67;4.67;;;;;24.30;45.62;102197.50;4975108;28;45446;-69
2022/07/07 11:21:43;;;;;;;;;5.67;5.67;;;;;24.19;45.61;102182.56;4979423;28;45445;-69
2022/07/07 11:24:21;;;;;;;;;6.00;5.67;;;;;24.35;45.70;102206.75;4996333;28;46580;-67
2022/07/07 11:27:00;;;;;;;;;6.33;5.33;;;;;24.40;45.83;102200.69;4994010;28;45400;-68
2022/07/07 11:29:26;;;;;;;;;4.00;4.00;;;;;24.45;45.06;102207.25;4976395;28;45459;-66